Flight Track Log - Related Links

Times and Time Zones

All times are in EST time to prevent confusion due to time zone crossing. See the N700QA flight status page for this flight to view local times or setup timezone preferences in your user account.

Time Position Orientation Groundspeed Altitude Reporting Facility
EST Latitude Longitude Course Direction KTS MPH feet Rate Location/Type
Sat 02:11:54 AM 36.0686 -115.1733 209° Southwest 176 203 3,000  Level Los Angeles Center
Sat 02:13:04 AM 36.0089 -115.2150 209° Southwest 236 272 5,800 2,466 Climbing Los Angeles Center
Sat 02:13:07 AM 36.0056 -115.2208 235° Southwest 232 267 6,000 1,400 Climbing Los Angeles Center
Sat 02:14:04 AM 35.9564 -115.2725 220° Southwest 255 293 7,200 1,881 Climbing Los Angeles Center
Sat 02:15:05 AM 35.8794 -115.2911 191° South 271 312 9,700 2,459 Climbing Los Angeles Center
Sat 02:16:06 AM 35.8017 -115.3211 197° South 293 337 12,200 2,331 Climbing Los Angeles Center
Sat 02:17:06 AM 35.7406 -115.3953 225° Southwest 309 356 14,400 2,132 Climbing Los Angeles Center
Sat 02:18:07 AM 35.6786 -115.4675 223° Southwest 308 354 16,500 1,736 Climbing Los Angeles Center
Sat 02:19:07 AM 35.6119 -115.5414 222° Southwest 316 364 17,900 1,537 Climbing Los Angeles Center
Sat 02:20:08 AM 35.5439 -115.6208 224° Southwest 331 381 19,600 1,623 Climbing Los Angeles Center
Sat 02:21:09 AM 35.4733 -115.7006 223° Southwest 340 391 21,200 1,488 Climbing Los Angeles Center
Sat 02:22:09 AM 35.4067 -115.7778 223° Southwest 349 402 22,600 1,339 Climbing Los Angeles Center
Sat 02:23:10 AM 35.3322 -115.8614 223° Southwest 358 412 23,900 694 Climbing Los Angeles Center
Sat 02:24:10 AM 35.2547 -115.9481 222° Southwest 372 428 24,000 99 Climbing Los Angeles Center
Sat 02:25:11 AM 35.1756 -116.0389 223° Southwest 388 447 24,100  Climbing Los Angeles Center
Sat 02:26:12 AM 35.0947 -116.1278 222° Southwest 390 449 24,000 -50 Descending Los Angeles Center
Sat 02:27:12 AM 35.0136 -116.2153 221° Southwest 390 449 24,000  Level Los Angeles Center
Sat 02:28:13 AM 34.9367 -116.3033 223° Southwest 385 443 24,000  Level Los Angeles Center
Sat 02:29:13 AM 34.8592 -116.3911 223° Southwest 381 438 24,000  Level Los Angeles Center
Sat 02:30:14 AM 34.7794 -116.4767 221° Southwest 381 438 24,000  Level Los Angeles Center
Sat 02:31:14 AM 34.6792 -116.5703 218° Southwest 379 436 24,000  Level Los Angeles Center
Sat 02:32:15 AM 34.5958 -116.6483 218° Southwest 378 435 24,000  Level Los Angeles Center
Sat 02:33:15 AM 34.5119 -116.7267 218° Southwest 378 435 24,000 -50 Level Los Angeles Center
Sat 02:34:16 AM 34.4297 -116.8053 218° Southwest 377 434 23,900 -639 Descending Los Angeles Center
Sat 02:35:17 AM 34.3483 -116.8817 218° Southwest 371 427 22,700 -1,438 Descending Los Angeles Center
Sat 02:36:17 AM 34.2669 -116.9561 217° Southwest 367 422 21,000 -1,686 Descending Los Angeles Center
Sat 02:37:18 AM 34.1883 -117.0297 218° Southwest 359 413 19,300 -1,488 Descending Los Angeles Center
Sat 02:38:18 AM 34.1150 -117.0997 218° Southwest 349 402 18,000 -983 Descending Los Angeles Center
Sat 02:39:14 AM 34.0667 -117.2000 240° Southwest 324 373 17,400 -1,269 Descending Southern California TRACON
Sat 02:40:02 AM 34.0500 -117.2833 256° West 345 397 15,800 -2,294 Descending Southern California TRACON
Sat 02:40:56 AM 34.0333 -117.3833 259° West 350 403 13,500 -2,000 Descending Southern California TRACON
Sat 02:41:50 AM 34.0167 -117.4833 259° West 315 362 12,200 -789 Descending Southern California TRACON
Sat 02:42:50 AM 34.0167 -117.5833 270° West 334 384 12,000 -105 Descending Southern California TRACON
Sat 02:43:44 AM 34.0000 -117.6667 256° West 310 357 12,000 -1,000 Level Southern California TRACON
Sat 02:44:50 AM 34.0000 -117.7833 270° West 300 345 10,000 -1,905 Descending Southern California TRACON
Sat 02:45:50 AM 34.0000 -117.8833 270° West 277 319 8,000 -1,526 Descending Southern California TRACON
Sat 02:46:44 AM 33.9833 -117.9500 253° West 231 266 7,100 -1,211 Descending Southern California TRACON
Sat 02:47:44 AM 33.9667 -118.0333 256° West 219 252 5,700 -1,250 Descending Southern California TRACON
Sat 02:48:44 AM 33.9667 -118.1000 270° West 211 243 4,600 -909 Descending Southern California TRACON
Sat 02:49:23 AM 33.9622 -118.1289 259° West 213 245 4,200 -1,030 Descending Los Angeles Center
Sat 02:50:23 AM 33.9547 -118.2103 264° West 207 238 2,900 -1,140 Descending Los Angeles Center
Sat 02:51:24 AM 33.9478 -118.2744 263° West 201 231 1,900 -1,041 Descending Los Angeles Center
Sat 02:52:24 AM 33.9411 -118.3403 263° West 200 230 800 -843 Descending Los Angeles Center
Sat 02:53:25 AM 33.9367 -118.3789 262° West 169 194 200 -590 Descending Los Angeles Center
Sat 02:55:00 AM 33.9333 -118.4000 259° West  Level FlightAware Approximate
Sat 03:02:00 AM 33.9425 -118.4081 259° West  Level Estimated

Login

Don't have an account? Register now (free) for customized features, flight alerts, and more!